sensor_id;sensor_type;location;lat;lon;timestamp;noise_LAeq;noise_LA_min;noise_LA_max;noise_LA01;noise_LA95
63692;Laerm;49838;51.798;10.954;2023-02-26T00:01:13;35.83;32.42;59.81;;
63692;Laerm;49838;51.798;10.954;2023-02-26T00:03:40;53.53;28.45;71.77;;
63692;Laerm;49838;51.798;10.954;2023-02-26T00:06:08;32.82;28.77;43.60;;
63692;Laerm;49838;51.798;10.954;2023-02-26T00:08:35;36.93;29.63;52.24;;
63692;Laerm;49838;51.798;10.954;2023-02-26T00:11:05;33.77;28.57;46.34;;
63692;Laerm;49838;51.798;10.954;2023-02-26T00:13:35;33.63;28.81;46.49;;
63692;Laerm;49838;51.798;10.954;2023-02-26T00:16:09;42.92;29.20;69.80;;
63692;Laerm;49838;51.798;10.954;2023-02-26T00:18:41;32.23;28.75;48.12;;
63692;Laerm;49838;51.798;10.954;2023-02-26T00:21:14;32.15;28.84;40.39;;
63692;Laerm;49838;51.798;10.954;2023-02-26T00:23:42;32.66;28.53;47.43;;
63692;Laerm;49838;51.798;10.954;2023-02-26T00:26:10;38.04;28.07;63.74;;
63692;Laerm;49838;51.798;10.954;2023-02-26T00:28:38;31.43;28.77;42.47;;
63692;Laerm;49838;51.798;10.954;2023-02-26T00:31:06;34.50;28.82;44.62;;
63692;Laerm;49838;51.798;10.954;2023-02-26T00:33:35;30.84;28.17;42.93;;
63692;Laerm;49838;51.798;10.954;2023-02-26T00:36:17;32.21;28.78;46.18;;
63692;Laerm;49838;51.798;10.954;2023-02-26T00:38:55;32.72;28.37;42.25;;
63692;Laerm;49838;51.798;10.954;2023-02-26T00:41:28;33.23;28.62;48.82;;
63692;Laerm;49838;51.798;10.954;2023-02-26T00:43:56;52.72;28.77;70.31;;
63692;Laerm;49838;51.798;10.954;2023-02-26T00:46:28;31.75;28.13;44.00;;
63692;Laerm;49838;51.798;10.954;2023-02-26T00:49:09;31.48;28.05;42.87;;
63692;Laerm;49838;51.798;10.954;2023-02-26T00:51:45;31.46;28.21;44.54;;
63692;Laerm;49838;51.798;10.954;2023-02-26T00:54:17;33.43;28.90;43.39;;
63692;Laerm;49838;51.798;10.954;2023-02-26T00:56:45;31.28;28.17;44.43;;
63692;Laerm;49838;51.798;10.954;2023-02-26T00:59:12;31.00;27.97;46.76;;
63692;Laerm;49838;51.798;10.954;2023-02-26T01:01:40;32.73;28.38;43.62;;
63692;Laerm;49838;51.798;10.954;2023-02-26T01:04:08;34.28;28.44;45.31;;
63692;Laerm;49838;51.798;10.954;2023-02-26T01:06:42;30.84;28.05;39.13;;
63692;Laerm;49838;51.798;10.954;2023-02-26T01:09:16;32.02;28.36;41.38;;
63692;Laerm;49838;51.798;10.954;2023-02-26T01:11:48;31.97;28.53;45.48;;
63692;Laerm;49838;51.798;10.954;2023-02-26T01:14:16;30.28;27.80;36.75;;
63692;Laerm;49838;51.798;10.954;2023-02-26T01:16:49;31.37;28.19;50.40;;
63692;Laerm;49838;51.798;10.954;2023-02-26T01:19:25;32.66;28.48;49.31;;
63692;Laerm;49838;51.798;10.954;2023-02-26T01:22:02;35.24;28.29;52.99;;
63692;Laerm;49838;51.798;10.954;2023-02-26T01:24:33;31.44;28.01;50.49;;
63692;Laerm;49838;51.798;10.954;2023-02-26T01:27:02;30.86;28.45;38.22;;
63692;Laerm;49838;51.798;10.954;2023-02-26T01:29:30;32.76;28.53;43.64;;
63692;Laerm;49838;51.798;10.954;2023-02-26T01:32:02;32.30;28.60;50.93;;
63692;Laerm;49838;51.798;10.954;2023-02-26T01:34:34;34.81;28.60;46.94;;
63692;Laerm;49838;51.798;10.954;2023-02-26T01:37:13;31.50;28.27;40.25;;
63692;Laerm;49838;51.798;10.954;2023-02-26T01:39:49;30.37;27.73;37.70;;
63692;Laerm;49838;51.798;10.954;2023-02-26T01:42:22;32.78;28.16;43.75;;
63692;Laerm;49838;51.798;10.954;2023-02-26T01:44:55;31.54;28.12;40.89;;
63692;Laerm;49838;51.798;10.954;2023-02-26T01:47:29;29.64;27.80;40.10;;
63692;Laerm;49838;51.798;10.954;2023-02-26T01:50:08;30.17;27.94;36.41;;
63692;Laerm;49838;51.798;10.954;2023-02-26T01:53:16;32.90;28.76;42.39;;
63692;Laerm;49838;51.798;10.954;2023-02-26T01:55:49;32.37;28.69;43.66;;
63692;Laerm;49838;51.798;10.954;2023-02-26T01:58:17;30.61;27.91;39.01;;
63692;Laerm;49838;51.798;10.954;2023-02-26T02:00:45;30.03;27.37;41.01;;
63692;Laerm;49838;51.798;10.954;2023-02-26T02:03:13;30.32;27.63;37.78;;
63692;Laerm;49838;51.798;10.954;2023-02-26T02:05:42;29.27;27.50;33.68;;
63692;Laerm;49838;51.798;10.954;2023-02-26T02:08:12;29.78;27.42;39.71;;
63692;Laerm;49838;51.798;10.954;2023-02-26T02:10:43;30.95;27.53;46.01;;
63692;Laerm;49838;51.798;10.954;2023-02-26T02:13:19;32.98;27.91;46.09;;
63692;Laerm;49838;51.798;10.954;2023-02-26T02:16:00;32.61;28.01;54.64;;
63692;Laerm;49838;51.798;10.954;2023-02-26T02:18:36;30.85;27.48;37.64;;
63692;Laerm;49838;51.798;10.954;2023-02-26T02:21:27;30.58;27.70;38.60;;
63692;Laerm;49838;51.798;10.954;2023-02-26T02:24:00;30.38;27.86;48.36;;
63692;Laerm;49838;51.798;10.954;2023-02-26T02:27:02;50.35;28.35;69.35;;
63692;Laerm;49838;51.798;10.954;2023-02-26T02:30:01;43.36;28.26;62.38;;
63692;Laerm;49838;51.798;10.954;2023-02-26T02:32:35;31.42;28.19;40.13;;
63692;Laerm;49838;51.798;10.954;2023-02-26T02:35:08;32.10;28.60;38.31;;
63692;Laerm;49838;51.798;10.954;2023-02-26T02:37:41;31.72;28.07;44.62;;
63692;Laerm;49838;51.798;10.954;2023-02-26T02:40:12;30.71;27.71;44.69;;
63692;Laerm;49838;51.798;10.954;2023-02-26T02:42:43;30.77;27.68;37.80;;
63692;Laerm;49838;51.798;10.954;2023-02-26T02:45:16;29.41;27.26;37.27;;
63692;Laerm;49838;51.798;10.954;2023-02-26T02:47:49;31.13;28.06;44.64;;
63692;Laerm;49838;51.798;10.954;2023-02-26T02:50:22;31.00;28.05;43.58;;
63692;Laerm;49838;51.798;10.954;2023-02-26T02:52:55;53.04;27.57;71.38;;
63692;Laerm;49838;51.798;10.954;2023-02-26T02:55:26;33.51;27.88;46.30;;
63692;Laerm;49838;51.798;10.954;2023-02-26T02:57:57;30.31;27.92;39.72;;
63692;Laerm;49838;51.798;10.954;2023-02-26T03:00:30;30.61;27.56;40.94;;
63692;Laerm;49838;51.798;10.954;2023-02-26T03:03:05;29.88;27.48;40.39;;
63692;Laerm;49838;51.798;10.954;2023-02-26T03:05:35;30.62;27.40;42.95;;
63692;Laerm;49838;51.798;10.954;2023-02-26T03:08:06;30.67;27.79;39.08;;
63692;Laerm;49838;51.798;10.954;2023-02-26T03:10:35;33.61;28.38;41.72;;
63692;Laerm;49838;51.798;10.954;2023-02-26T03:13:02;33.06;28.47;43.18;;
63692;Laerm;49838;51.798;10.954;2023-02-26T03:15:37;33.41;28.32;46.67;;
63692;Laerm;49838;51.798;10.954;2023-02-26T03:18:13;56.68;28.29;74.83;;
63692;Laerm;49838;51.798;10.954;2023-02-26T03:20:51;33.59;28.97;43.79;;
63692;Laerm;49838;51.798;10.954;2023-02-26T03:23:27;31.26;28.40;39.63;;
63692;Laerm;49838;51.798;10.954;2023-02-26T03:26:02;32.64;29.39;40.23;;
63692;Laerm;49838;51.798;10.954;2023-02-26T03:28:37;32.40;28.94;45.17;;
63692;Laerm;49838;51.798;10.954;2023-02-26T03:31:08;31.84;29.29;42.16;;
63692;Laerm;49838;51.798;10.954;2023-02-26T03:33:45;32.62;29.13;45.65;;
63692;Laerm;49838;51.798;10.954;2023-02-26T03:36:19;31.61;28.86;40.14;;
63692;Laerm;49838;51.798;10.954;2023-02-26T03:38:50;33.55;28.92;46.53;;
63692;Laerm;49838;51.798;10.954;2023-02-26T03:41:23;31.29;28.76;38.53;;
63692;Laerm;49838;51.798;10.954;2023-02-26T03:43:55;33.82;30.04;43.18;;
63692;Laerm;49838;51.798;10.954;2023-02-26T03:46:28;33.89;29.67;48.83;;
63692;Laerm;49838;51.798;10.954;2023-02-26T03:49:00;32.39;29.34;40.32;;
63692;Laerm;49838;51.798;10.954;2023-02-26T03:51:30;32.35;28.96;44.10;;
63692;Laerm;49838;51.798;10.954;2023-02-26T03:54:04;31.73;28.74;39.13;;
63692;Laerm;49838;51.798;10.954;2023-02-26T03:56:36;32.00;29.19;38.74;;
63692;Laerm;49838;51.798;10.954;2023-02-26T03:59:06;31.50;28.66;41.08;;
63692;Laerm;49838;51.798;10.954;2023-02-26T04:01:37;32.25;28.84;40.16;;
63692;Laerm;49838;51.798;10.954;2023-02-26T04:04:12;31.41;28.73;39.85;;
63692;Laerm;49838;51.798;10.954;2023-02-26T04:06:42;33.32;29.22;41.69;;
63692;Laerm;49838;51.798;10.954;2023-02-26T04:09:10;37.17;29.37;57.58;;
63692;Laerm;49838;51.798;10.954;2023-02-26T04:11:38;46.41;31.11;66.29;;
63692;Laerm;49838;51.798;10.954;2023-02-26T04:14:06;33.77;29.45;45.86;;
63692;Laerm;49838;51.798;10.954;2023-02-26T04:16:33;34.30;29.28;44.08;;
63692;Laerm;49838;51.798;10.954;2023-02-26T04:19:00;35.34;28.74;54.26;;
63692;Laerm;49838;51.798;10.954;2023-02-26T04:21:29;38.71;29.67;59.45;;
63692;Laerm;49838;51.798;10.954;2023-02-26T04:23:56;36.03;30.09;47.87;;
63692;Laerm;49838;51.798;10.954;2023-02-26T04:26:24;32.90;30.35;38.07;;
63692;Laerm;49838;51.798;10.954;2023-02-26T04:28:51;32.43;28.76;39.59;;
63692;Laerm;49838;51.798;10.954;2023-02-26T04:31:18;31.33;28.10;41.40;;
63692;Laerm;49838;51.798;10.954;2023-02-26T04:33:45;34.11;28.75;49.60;;
63692;Laerm;49838;51.798;10.954;2023-02-26T04:36:13;33.13;28.73;51.61;;
63692;Laerm;49838;51.798;10.954;2023-02-26T04:38:41;33.05;28.83;58.47;;
63692;Laerm;49838;51.798;10.954;2023-02-26T04:41:09;31.99;28.06;38.28;;
63692;Laerm;49838;51.798;10.954;2023-02-26T04:43:36;30.80;28.03;47.64;;
63692;Laerm;49838;51.798;10.954;2023-02-26T04:46:04;32.93;28.61;40.31;;
63692;Laerm;49838;51.798;10.954;2023-02-26T04:48:31;36.64;29.38;48.22;;
63692;Laerm;49838;51.798;10.954;2023-02-26T04:50:58;54.92;28.59;75.50;;
63692;Laerm;49838;51.798;10.954;2023-02-26T04:53:25;38.41;29.01;53.45;;
63692;Laerm;49838;51.798;10.954;2023-02-26T04:55:54;33.00;29.00;47.98;;
63692;Laerm;49838;51.798;10.954;2023-02-26T04:58:21;54.39;29.94;72.82;;
63692;Laerm;49838;51.798;10.954;2023-02-26T05:00:49;50.13;28.73;69.25;;
63692;Laerm;49838;51.798;10.954;2023-02-26T05:03:16;32.46;28.62;52.69;;
63692;Laerm;49838;51.798;10.954;2023-02-26T05:05:44;31.85;29.00;38.07;;
63692;Laerm;49838;51.798;10.954;2023-02-26T05:08:12;50.32;28.44;68.04;;
63692;Laerm;49838;51.798;10.954;2023-02-26T05:10:39;32.54;28.36;52.16;;
63692;Laerm;49838;51.798;10.954;2023-02-26T05:13:08;35.55;28.12;47.87;;
63692;Laerm;49838;51.798;10.954;2023-02-26T05:15:35;36.48;28.61;49.16;;
63692;Laerm;49838;51.798;10.954;2023-02-26T05:18:03;34.92;28.77;57.77;;
63692;Laerm;49838;51.798;10.954;2023-02-26T05:20:30;56.87;29.22;77.56;;
63692;Laerm;49838;51.798;10.954;2023-02-26T05:22:57;31.72;28.40;38.33;;
63692;Laerm;49838;51.798;10.954;2023-02-26T05:25:24;32.68;29.05;41.29;;
63692;Laerm;49838;51.798;10.954;2023-02-26T05:27:52;46.88;30.19;63.00;;
63692;Laerm;49838;51.798;10.954;2023-02-26T05:30:21;47.37;31.24;64.35;;
63692;Laerm;49838;51.798;10.954;2023-02-26T05:32:48;35.56;30.57;61.10;;
63692;Laerm;49838;51.798;10.954;2023-02-26T05:35:15;51.54;29.54;69.81;;
63692;Laerm;49838;51.798;10.954;2023-02-26T05:37:43;38.35;30.39;50.97;;
63692;Laerm;49838;51.798;10.954;2023-02-26T05:40:11;31.83;29.19;37.16;;
63692;Laerm;49838;51.798;10.954;2023-02-26T05:42:39;32.94;28.89;39.34;;
63692;Laerm;49838;51.798;10.954;2023-02-26T05:45:07;35.63;29.26;48.10;;
63692;Laerm;49838;51.798;10.954;2023-02-26T05:47:36;47.61;30.91;66.73;;
63692;Laerm;49838;51.798;10.954;2023-02-26T05:50:04;34.73;30.85;50.61;;
63692;Laerm;49838;51.798;10.954;2023-02-26T05:52:32;40.93;30.96;56.12;;
63692;Laerm;49838;51.798;10.954;2023-02-26T05:54:59;49.65;31.77;66.75;;
63692;Laerm;49838;51.798;10.954;2023-02-26T05:57:27;38.94;30.83;51.59;;
63692;Laerm;49838;51.798;10.954;2023-02-26T05:59:54;52.98;29.80;68.54;;
63692;Laerm;49838;51.798;10.954;2023-02-26T06:02:21;43.11;29.96;63.78;;
63692;Laerm;49838;51.798;10.954;2023-02-26T06:04:50;44.41;30.91;61.67;;
63692;Laerm;49838;51.798;10.954;2023-02-26T06:07:17;42.80;31.14;60.32;;
63692;Laerm;49838;51.798;10.954;2023-02-26T06:09:45;40.37;30.36;64.91;;
63692;Laerm;49838;51.798;10.954;2023-02-26T06:12:13;34.68;29.95;45.86;;
63692;Laerm;49838;51.798;10.954;2023-02-26T06:14:40;36.41;29.94;45.95;;
63692;Laerm;49838;51.798;10.954;2023-02-26T06:17:07;36.49;30.36;51.62;;
63692;Laerm;49838;51.798;10.954;2023-02-26T06:19:35;35.33;29.87;47.53;;
63692;Laerm;49838;51.798;10.954;2023-02-26T06:22:03;39.83;30.77;65.26;;
63692;Laerm;49838;51.798;10.954;2023-02-26T06:24:31;41.37;30.57;66.75;;
63692;Laerm;49838;51.798;10.954;2023-02-26T06:26:58;35.54;30.93;48.97;;
63692;Laerm;49838;51.798;10.954;2023-02-26T06:29:25;37.44;31.78;48.68;;
63692;Laerm;49838;51.798;10.954;2023-02-26T06:31:52;37.27;31.04;65.23;;
63692;Laerm;49838;51.798;10.954;2023-02-26T06:34:20;40.18;30.58;60.22;;
63692;Laerm;49838;51.798;10.954;2023-02-26T06:36:48;34.80;29.98;49.36;;
63692;Laerm;49838;51.798;10.954;2023-02-26T06:39:16;33.99;29.87;45.36;;
63692;Laerm;49838;51.798;10.954;2023-02-26T06:41:44;47.94;30.64;65.84;;
63692;Laerm;49838;51.798;10.954;2023-02-26T06:44:11;40.95;29.00;62.82;;
63692;Laerm;49838;51.798;10.954;2023-02-26T06:46:38;44.17;29.33;63.24;;
63692;Laerm;49838;51.798;10.954;2023-02-26T06:49:06;53.04;30.28;70.70;;
63692;Laerm;49838;51.798;10.954;2023-02-26T06:51:34;48.89;31.47;67.32;;
63692;Laerm;49838;51.798;10.954;2023-02-26T06:54:02;52.69;32.40;70.99;;
63692;Laerm;49838;51.798;10.954;2023-02-26T06:56:32;42.04;30.28;66.63;;
63692;Laerm;49838;51.798;10.954;2023-02-26T06:59:00;40.97;30.97;56.22;;
63692;Laerm;49838;51.798;10.954;2023-02-26T07:01:27;52.35;33.06;69.13;;
63692;Laerm;49838;51.798;10.954;2023-02-26T07:03:56;52.35;33.86;67.86;;
63692;Laerm;49838;51.798;10.954;2023-02-26T07:06:24;51.86;31.55;70.83;;
63692;Laerm;49838;51.798;10.954;2023-02-26T07:08:51;40.37;30.27;61.73;;
63692;Laerm;49838;51.798;10.954;2023-02-26T07:11:18;39.84;31.84;55.25;;
63692;Laerm;49838;51.798;10.954;2023-02-26T07:13:47;38.84;31.56;52.38;;
63692;Laerm;49838;51.798;10.954;2023-02-26T07:16:16;42.24;32.01;64.63;;
63692;Laerm;49838;51.798;10.954;2023-02-26T07:18:43;49.88;33.16;65.23;;
63692;Laerm;49838;51.798;10.954;2023-02-26T07:21:10;56.43;34.38;74.28;;
63692;Laerm;49838;51.798;10.954;2023-02-26T07:23:38;51.66;33.13;70.94;;
63692;Laerm;49838;51.798;10.954;2023-02-26T07:26:05;41.77;32.31;56.61;;
63692;Laerm;49838;51.798;10.954;2023-02-26T07:28:34;56.26;34.65;70.77;;
63692;Laerm;49838;51.798;10.954;2023-02-26T07:31:02;51.69;34.36;71.44;;
63692;Laerm;49838;51.798;10.954;2023-02-26T07:33:30;47.63;34.40;75.69;;
63692;Laerm;49838;51.798;10.954;2023-02-26T07:36:00;54.06;33.36;73.21;;
63692;Laerm;49838;51.798;10.954;2023-02-26T07:38:27;50.53;32.36;70.83;;
63692;Laerm;49838;51.798;10.954;2023-02-26T07:40:54;56.67;32.60;75.52;;
63692;Laerm;49838;51.798;10.954;2023-02-26T07:43:22;42.86;31.80;57.80;;
63692;Laerm;49838;51.798;10.954;2023-02-26T07:45:50;50.30;31.40;68.14;;
63692;Laerm;49838;51.798;10.954;2023-02-26T07:48:19;50.96;33.81;68.62;;
63692;Laerm;49838;51.798;10.954;2023-02-26T07:50:46;51.37;33.14;69.60;;
63692;Laerm;49838;51.798;10.954;2023-02-26T07:53:14;57.31;34.14;74.40;;
63692;Laerm;49838;51.798;10.954;2023-02-26T07:55:42;44.72;31.21;58.32;;
63692;Laerm;49838;51.798;10.954;2023-02-26T07:58:09;38.32;31.16;48.71;;
63692;Laerm;49838;51.798;10.954;2023-02-26T08:00:36;61.27;33.14;77.59;;
63692;Laerm;49838;51.798;10.954;2023-02-26T08:03:03;58.18;35.29;77.35;;
63692;Laerm;49838;51.798;10.954;2023-02-26T08:05:32;60.71;35.34;74.36;;
63692;Laerm;49838;51.798;10.954;2023-02-26T08:08:00;49.53;33.83;65.82;;
63692;Laerm;49838;51.798;10.954;2023-02-26T08:10:28;53.38;32.60;69.66;;
63692;Laerm;49838;51.798;10.954;2023-02-26T08:12:56;54.35;35.42;70.67;;
63692;Laerm;49838;51.798;10.954;2023-02-26T08:15:23;56.55;36.65;73.68;;
63692;Laerm;49838;51.798;10.954;2023-02-26T08:17:51;54.90;37.05;82.52;;
63692;Laerm;49838;51.798;10.954;2023-02-26T08:20:18;50.41;38.24;72.26;;
63692;Laerm;49838;51.798;10.954;2023-02-26T08:22:47;57.37;38.79;76.14;;
63692;Laerm;49838;51.798;10.954;2023-02-26T08:25:14;46.93;36.86;65.64;;
63692;Laerm;49838;51.798;10.954;2023-02-26T08:27:41;48.29;36.60;68.63;;
63692;Laerm;49838;51.798;10.954;2023-02-26T08:30:10;59.04;38.73;74.63;;
63692;Laerm;49838;51.798;10.954;2023-02-26T08:32:37;55.20;36.46;71.85;;
63692;Laerm;49838;51.798;10.954;2023-02-26T08:35:07;60.62;36.09;76.83;;
63692;Laerm;49838;51.798;10.954;2023-02-26T08:37:35;52.20;36.99;69.84;;
63692;Laerm;49838;51.798;10.954;2023-02-26T08:40:06;65.12;37.47;82.67;;
63692;Laerm;49838;51.798;10.954;2023-02-26T08:42:34;49.03;38.48;63.62;;
63692;Laerm;49838;51.798;10.954;2023-02-26T08:45:01;47.01;38.52;59.40;;
63692;Laerm;49838;51.798;10.954;2023-02-26T08:47:29;54.15;36.65;69.43;;
63692;Laerm;49838;51.798;10.954;2023-02-26T08:49:57;51.24;37.09;67.18;;
63692;Laerm;49838;51.798;10.954;2023-02-26T08:52:25;54.32;35.91;71.41;;
63692;Laerm;49838;51.798;10.954;2023-02-26T08:54:52;58.41;37.51;73.98;;
63692;Laerm;49838;51.798;10.954;2023-02-26T08:57:21;57.26;37.62;75.39;;
63692;Laerm;49838;51.798;10.954;2023-02-26T08:59:48;55.08;37.83;67.81;;
63692;Laerm;49838;51.798;10.954;2023-02-26T09:02:15;54.09;39.39;68.89;;
63692;Laerm;49838;51.798;10.954;2023-02-26T09:04:42;55.36;39.25;72.58;;
63692;Laerm;49838;51.798;10.954;2023-02-26T09:07:09;57.62;40.57;72.63;;
63692;Laerm;49838;51.798;10.954;2023-02-26T09:09:37;46.33;39.28;58.60;;
63692;Laerm;49838;51.798;10.954;2023-02-26T09:12:04;49.69;39.33;68.34;;
63692;Laerm;49838;51.798;10.954;2023-02-26T09:14:33;56.37;45.21;70.30;;
63692;Laerm;49838;51.798;10.954;2023-02-26T09:17:00;57.25;41.19;71.68;;
63692;Laerm;49838;51.798;10.954;2023-02-26T09:19:43;55.87;39.14;72.86;;
63692;Laerm;49838;51.798;10.954;2023-02-26T09:22:20;53.24;41.37;69.36;;
63692;Laerm;49838;51.798;10.954;2023-02-26T09:24:51;48.64;39.55;63.09;;
63692;Laerm;49838;51.798;10.954;2023-02-26T09:27:23;64.20;40.99;83.82;;
63692;Laerm;49838;51.798;10.954;2023-02-26T09:29:55;50.66;40.52;68.22;;
63692;Laerm;49838;51.798;10.954;2023-02-26T09:32:32;57.13;39.03;71.90;;
63692;Laerm;49838;51.798;10.954;2023-02-26T09:35:09;58.74;42.34;77.21;;
63692;Laerm;49838;51.798;10.954;2023-02-26T09:37:41;54.76;38.64;67.90;;
63692;Laerm;49838;51.798;10.954;2023-02-26T09:40:22;58.74;39.04;73.85;;
63692;Laerm;49838;51.798;10.954;2023-02-26T09:43:20;57.68;39.73;72.02;;
63692;Laerm;49838;51.798;10.954;2023-02-26T09:46:04;57.50;42.14;71.44;;
63692;Laerm;49838;51.798;10.954;2023-02-26T09:48:39;55.97;39.42;70.60;;
63692;Laerm;49838;51.798;10.954;2023-02-26T09:51:15;56.43;40.55;70.44;;
63692;Laerm;49838;51.798;10.954;2023-02-26T09:53:50;58.44;39.99;74.66;;
63692;Laerm;49838;51.798;10.954;2023-02-26T09:56:39;56.18;39.75;72.94;;
63692;Laerm;49838;51.798;10.954;2023-02-26T09:59:12;56.81;39.25;73.50;;
63692;Laerm;49838;51.798;10.954;2023-02-26T10:01:53;47.25;37.81;66.51;;
63692;Laerm;49838;51.798;10.954;2023-02-26T10:04:29;53.85;37.10;72.61;;
63692;Laerm;49838;51.798;10.954;2023-02-26T10:07:22;51.34;38.77;69.18;;
63692;Laerm;49838;51.798;10.954;2023-02-26T10:10:20;56.50;38.18;78.43;;
63692;Laerm;49838;51.798;10.954;2023-02-26T10:13:02;55.51;36.78;71.33;;
63692;Laerm;49838;51.798;10.954;2023-02-26T10:15:36;56.25;37.83;74.00;;
63692;Laerm;49838;51.798;10.954;2023-02-26T10:18:20;59.66;39.27;73.58;;
63692;Laerm;49838;51.798;10.954;2023-02-26T10:20:54;54.51;39.87;73.22;;
63692;Laerm;49838;51.798;10.954;2023-02-26T10:23:30;46.46;35.57;61.43;;
63692;Laerm;49838;51.798;10.954;2023-02-26T10:26:03;59.13;38.19;76.40;;
63692;Laerm;49838;51.798;10.954;2023-02-26T10:28:57;58.57;37.77;76.47;;
63692;Laerm;49838;51.798;10.954;2023-02-26T10:31:53;57.31;38.05;75.03;;
63692;Laerm;49838;51.798;10.954;2023-02-26T10:34:35;56.94;40.72;76.45;;
63692;Laerm;49838;51.798;10.954;2023-02-26T10:37:13;56.72;40.03;73.61;;
63692;Laerm;49838;51.798;10.954;2023-02-26T10:39:58;54.26;38.08;71.12;;
63692;Laerm;49838;51.798;10.954;2023-02-26T10:42:40;59.24;39.91;75.54;;
63692;Laerm;49838;51.798;10.954;2023-02-26T10:45:27;59.02;38.46;74.99;;
63692;Laerm;49838;51.798;10.954;2023-02-26T10:48:13;57.10;38.70;71.32;;
63692;Laerm;49838;51.798;10.954;2023-02-26T10:50:49;57.20;39.38;71.82;;
63692;Laerm;49838;51.798;10.954;2023-02-26T10:53:20;54.94;39.60;70.85;;
63692;Laerm;49838;51.798;10.954;2023-02-26T10:55:52;56.99;37.29;73.87;;
63692;Laerm;49838;51.798;10.954;2023-02-26T10:58:25;56.32;39.03;73.81;;
63692;Laerm;49838;51.798;10.954;2023-02-26T11:00:59;53.85;37.92;73.23;;
63692;Laerm;49838;51.798;10.954;2023-02-26T11:03:36;56.70;36.60;71.67;;
63692;Laerm;49838;51.798;10.954;2023-02-26T11:06:09;59.30;40.59;77.53;;
63692;Laerm;49838;51.798;10.954;2023-02-26T11:08:46;57.59;39.45;71.75;;
63692;Laerm;49838;51.798;10.954;2023-02-26T11:11:45;47.68;39.30;64.72;;
63692;Laerm;49838;51.798;10.954;2023-02-26T11:14:23;52.93;36.74;69.43;;
63692;Laerm;49838;51.798;10.954;2023-02-26T11:16:59;54.99;38.23;71.05;;
63692;Laerm;49838;51.798;10.954;2023-02-26T11:19:34;54.55;39.06;69.07;;
63692;Laerm;49838;51.798;10.954;2023-02-26T11:22:14;58.66;39.89;73.98;;
63692;Laerm;49838;51.798;10.954;2023-02-26T11:25:02;59.20;38.46;76.24;;
63692;Laerm;49838;51.798;10.954;2023-02-26T11:27:37;57.84;36.96;75.83;;
63692;Laerm;49838;51.798;10.954;2023-02-26T11:30:14;56.76;35.80;72.72;;
63692;Laerm;49838;51.798;10.954;2023-02-26T11:32:50;62.20;37.38;82.06;;
63692;Laerm;49838;51.798;10.954;2023-02-26T11:35:23;57.00;35.64;77.47;;
63692;Laerm;49838;51.798;10.954;2023-02-26T11:38:00;53.67;36.15;74.09;;
63692;Laerm;49838;51.798;10.954;2023-02-26T11:40:33;55.61;39.56;69.95;;
63692;Laerm;49838;51.798;10.954;2023-02-26T11:43:18;52.89;37.88;71.02;;
63692;Laerm;49838;51.798;10.954;2023-02-26T16:23:12;56.85;38.31;74.85;;
63692;Laerm;49838;51.798;10.954;2023-02-26T16:25:48;55.74;37.16;74.67;;
63692;Laerm;49838;51.798;10.954;2023-02-26T16:28:21;49.61;38.76;66.20;;
63692;Laerm;49838;51.798;10.954;2023-02-26T16:30:53;44.31;38.69;57.60;;
63692;Laerm;49838;51.798;10.954;2023-02-26T16:33:23;59.47;39.63;72.85;;
63692;Laerm;49838;51.798;10.954;2023-02-26T16:35:54;57.24;40.74;71.72;;
63692;Laerm;49838;51.798;10.954;2023-02-26T16:38:26;53.58;37.98;71.44;;
63692;Laerm;49838;51.798;10.954;2023-02-26T16:40:58;55.19;38.02;75.84;;
63692;Laerm;49838;51.798;10.954;2023-02-26T16:43:35;53.99;38.95;70.33;;
63692;Laerm;49838;51.798;10.954;2023-02-26T16:46:10;53.47;36.92;71.29;;
63692;Laerm;49838;51.798;10.954;2023-02-26T16:48:45;58.13;37.74;74.34;;
63692;Laerm;49838;51.798;10.954;2023-02-26T16:51:15;56.16;39.58;71.20;;
63692;Laerm;49838;51.798;10.954;2023-02-26T16:53:48;45.01;40.30;51.48;;
63692;Laerm;49838;51.798;10.954;2023-02-26T16:56:23;53.89;39.33;71.38;;
63692;Laerm;49838;51.798;10.954;2023-02-26T16:58:56;55.87;40.45;69.97;;
63692;Laerm;49838;51.798;10.954;2023-02-26T17:01:34;55.88;40.55;71.21;;
63692;Laerm;49838;51.798;10.954;2023-02-26T17:04:03;52.26;38.01;70.25;;
63692;Laerm;49838;51.798;10.954;2023-02-26T17:06:35;53.19;36.83;72.28;;
63692;Laerm;49838;51.798;10.954;2023-02-26T17:09:06;52.63;37.58;69.95;;
63692;Laerm;49838;51.798;10.954;2023-02-26T17:11:37;52.59;38.30;75.57;;
63692;Laerm;49838;51.798;10.954;2023-02-26T17:14:13;48.24;39.66;64.44;;
63692;Laerm;49838;51.798;10.954;2023-02-26T17:16:46;54.40;38.99;69.14;;
63692;Laerm;49838;51.798;10.954;2023-02-26T17:19:16;47.82;37.67;67.92;;
63692;Laerm;49838;51.798;10.954;2023-02-26T17:21:47;55.88;37.96;72.05;;
63692;Laerm;49838;51.798;10.954;2023-02-26T17:24:18;45.81;37.93;61.73;;
63692;Laerm;49838;51.798;10.954;2023-02-26T17:26:47;51.96;40.51;65.56;;
63692;Laerm;49838;51.798;10.954;2023-02-26T17:29:18;55.29;39.77;72.53;;
63692;Laerm;49838;51.798;10.954;2023-02-26T17:31:48;60.03;40.09;79.86;;
63692;Laerm;49838;51.798;10.954;2023-02-26T17:34:16;58.38;38.07;73.16;;
63692;Laerm;49838;51.798;10.954;2023-02-26T17:36:44;60.15;38.62;76.59;;
63692;Laerm;49838;51.798;10.954;2023-02-26T17:39:13;50.45;36.99;67.69;;
63692;Laerm;49838;51.798;10.954;2023-02-26T17:41:45;52.90;38.36;72.76;;
63692;Laerm;49838;51.798;10.954;2023-02-26T17:44:12;54.72;38.94;69.78;;
63692;Laerm;49838;51.798;10.954;2023-02-26T17:46:39;43.73;38.78;60.07;;
63692;Laerm;49838;51.798;10.954;2023-02-26T17:49:06;43.84;38.92;56.16;;
63692;Laerm;49838;51.798;10.954;2023-02-26T17:51:35;43.24;37.62;56.70;;
63692;Laerm;49838;51.798;10.954;2023-02-26T17:54:09;54.24;39.04;72.95;;
63692;Laerm;49838;51.798;10.954;2023-02-26T17:56:37;64.16;38.31;83.19;;
63692;Laerm;49838;51.798;10.954;2023-02-26T17:59:05;54.58;39.73;69.64;;
63692;Laerm;49838;51.798;10.954;2023-02-26T18:01:32;52.69;39.15;72.03;;
63692;Laerm;49838;51.798;10.954;2023-02-26T18:04:02;50.59;37.72;66.30;;
63692;Laerm;49838;51.798;10.954;2023-02-26T18:06:32;45.45;37.94;69.02;;
63692;Laerm;49838;51.798;10.954;2023-02-26T18:09:00;55.27;41.52;72.91;;
63692;Laerm;49838;51.798;10.954;2023-02-26T18:11:29;48.05;40.12;63.57;;
63692;Laerm;49838;51.798;10.954;2023-02-26T18:13:57;47.16;37.23;69.47;;
63692;Laerm;49838;51.798;10.954;2023-02-26T18:16:38;60.66;37.38;76.02;;
63692;Laerm;49838;51.798;10.954;2023-02-26T18:19:06;47.08;39.37;69.05;;
63692;Laerm;49838;51.798;10.954;2023-02-26T18:21:36;42.44;37.44;48.15;;
63692;Laerm;49838;51.798;10.954;2023-02-26T18:24:05;54.99;36.18;69.86;;
63692;Laerm;49838;51.798;10.954;2023-02-26T18:26:32;53.87;43.86;63.41;;
63692;Laerm;49838;51.798;10.954;2023-02-26T18:29:00;52.96;37.31;72.39;;
63692;Laerm;49838;51.798;10.954;2023-02-26T18:31:28;54.02;37.77;75.56;;
63692;Laerm;49838;51.798;10.954;2023-02-26T18:34:00;56.41;38.99;74.58;;